Time;durP1;ratioP1;P1;durP2;ratioP2;P2;SDS_P1;SDS_P2;PMS_P1;PMS_P2;Temp;Humidity;BMP_temperature;BMP_pressure;BME280_temperature;BME280_humidity;BME280_pressure;Samples;Min_cycle;Max_cycle;Signal;HPM_P1;HPM_P2
2023/04/13 00:00:34;;;;;;;;;;;;;;;16.17;nan;100026.47;4974028;28;19914;-87
2023/04/13 00:03:00;;;;;;;;;;;;;;;16.22;nan;100022.84;4974353;28;19945;-87
2023/04/13 00:05:27;;;;;;;;;;;;;;;16.16;nan;100021.38;4974556;28;19915;-87
2023/04/13 00:07:52;;;;;;;;;;;;;;;16.13;nan;100032.75;4974212;28;19914;-87
2023/04/13 00:10:19;;;;;;;;;;;;;;;16.13;nan;100030.06;4986768;28;19914;-87
2023/04/13 00:12:47;;;;;;;;;;;;;;;16.14;nan;100039.75;4995758;28;20004;-87
2023/04/13 00:15:14;;;;;;;;;;;;;;;16.11;nan;100027.66;4994633;28;19930;-87
2023/04/13 00:17:41;;;;;;;;;;;;;;;16.07;nan;100036.69;4992760;28;19913;-88
2023/04/13 00:20:11;;;;;;;;;;;;;;;16.05;nan;100036.19;4992418;28;19959;-87
2023/04/13 00:22:37;;;;;;;;;;;;;;;16.05;nan;100034.28;4993278;28;19922;-87
2023/04/13 00:25:02;;;;;;;;;;;;;;;16.08;nan;100040.97;4993541;28;19949;-87
2023/04/13 00:27:29;;;;;;;;;;;;;;;16.12;nan;100042.75;4994472;28;19938;-87
2023/04/13 00:29:55;;;;;;;;;;;;;;;16.07;nan;100039.38;4993008;28;19921;-87
2023/04/13 00:32:23;;;;;;;;;;;;;;;16.05;nan;100049.69;4993305;28;19913;-87
2023/04/13 00:34:49;;;;;;;;;;;;;;;15.99;nan;100046.28;4974099;28;19965;-87
2023/04/13 00:37:14;;;;;;;;;;;;;;;15.97;nan;100035.75;4972059;28;19949;-87
2023/04/13 00:39:42;;;;;;;;;;;;;;;15.96;nan;100025.25;4973676;28;19918;-87
2023/04/13 00:42:08;;;;;;;;;;;;;;;15.90;nan;100035.38;4973589;28;19914;-87
2023/04/13 00:44:33;;;;;;;;;;;;;;;15.87;nan;100041.38;4973067;28;20379;-87
2023/04/13 00:47:00;;;;;;;;;;;;;;;15.90;nan;100034.56;4972374;28;19921;-87
2023/04/13 00:49:25;;;;;;;;;;;;;;;15.93;nan;100034.78;4971793;28;20490;-87
2023/04/13 00:51:51;;;;;;;;;;;;;;;15.96;nan;100025.25;4973602;28;19961;-88
2023/04/13 00:54:17;;;;;;;;;;;;;;;15.95;nan;100020.97;4984279;28;20037;-87
2023/04/13 00:56:43;;;;;;;;;;;;;;;15.93;nan;100015.84;4991449;28;20457;-87
2023/04/13 00:59:11;;;;;;;;;;;;;;;15.95;nan;100013.66;4991691;28;19913;-87
2023/04/13 01:01:49;;;;;;;;;;;;;;;15.94;nan;100014.75;4991436;28;20330;-88
2023/04/13 01:04:17;;;;;;;;;;;;;;;15.92;nan;100021.56;4991714;28;20374;-87
2023/04/13 01:06:48;;;;;;;;;;;;;;;15.87;nan;100024.38;4991341;28;20319;-88
2023/04/13 01:09:16;;;;;;;;;;;;;;;15.86;nan;100031.69;4991340;28;20438;-86
2023/04/13 01:11:51;;;;;;;;;;;;;;;15.79;nan;100033.97;4990746;28;19913;-87
2023/04/13 01:14:23;;;;;;;;;;;;;;;15.78;nan;100018.06;4990557;28;20452;-87
2023/04/13 01:16:56;;;;;;;;;;;;;;;15.73;nan;100029.78;4990658;28;19921;-88
2023/04/13 01:19:33;;;;;;;;;;;;;;;15.74;nan;100047.56;4990635;28;20364;-87
2023/04/13 01:21:59;;;;;;;;;;;;;;;15.80;nan;100049.09;4990559;28;19957;-87
2023/04/13 01:24:31;;;;;;;;;;;;;;;15.77;nan;100044.28;4990840;28;19921;-87
2023/04/13 01:27:05;;;;;;;;;;;;;;;15.75;nan;100062.69;4991534;28;19918;-87
2023/04/13 01:29:31;;;;;;;;;;;;;;;15.76;nan;100064.28;4990775;28;20304;-87
2023/04/13 01:31:57;;;;;;;;;;;;;;;15.79;nan;100065.56;4990589;28;19918;-87
2023/04/13 01:34:24;;;;;;;;;;;;;;;15.79;nan;100077.19;4990790;28;19925;-87
2023/04/13 01:36:50;;;;;;;;;;;;;;;15.82;nan;100082.00;4990529;28;19937;-87
2023/04/13 01:39:19;;;;;;;;;;;;;;;15.91;nan;100085.59;4990158;28;19965;-87
2023/04/13 01:41:45;;;;;;;;;;;;;;;15.94;nan;100082.28;4990346;28;19920;-87
2023/04/13 01:44:11;;;;;;;;;;;;;;;15.96;nan;100080.09;4990371;28;19913;-87
2023/04/13 01:46:41;;;;;;;;;;;;;;;15.99;nan;100086.81;4990461;28;19918;-87
2023/04/13 01:49:09;;;;;;;;;;;;;;;15.96;nan;100077.41;4990334;28;19924;-87
2023/04/13 01:51:35;;;;;;;;;;;;;;;16.00;nan;100073.00;4989999;28;19920;-86
2023/04/13 01:54:14;;;;;;;;;;;;;;;15.98;nan;100069.81;4990580;28;20346;-87
2023/04/13 01:56:40;;;;;;;;;;;;;;;15.98;nan;100071.72;4990539;28;19914;-87
2023/04/13 01:59:05;;;;;;;;;;;;;;;16.01;nan;100068.41;4993436;28;19937;-86
2023/04/13 02:01:31;;;;;;;;;;;;;;;16.02;nan;100075.41;4995022;28;19922;-87
2023/04/13 02:03:56;;;;;;;;;;;;;;;16.02;nan;100070.00;4994528;28;19925;-87
2023/04/13 02:06:22;;;;;;;;;;;;;;;16.01;nan;100063.81;4994524;28;19914;-87
2023/04/13 02:08:48;;;;;;;;;;;;;;;15.98;nan;100059.00;4994670;28;19989;-87
2023/04/13 02:11:14;;;;;;;;;;;;;;;15.93;nan;100071.78;4995121;28;19921;-87
2023/04/13 02:13:40;;;;;;;;;;;;;;;15.88;nan;100083.50;4994889;28;19937;-86
2023/04/13 02:16:05;;;;;;;;;;;;;;;15.90;nan;100075.91;4994996;28;20383;-86
2023/04/13 02:18:32;;;;;;;;;;;;;;;15.87;nan;100071.09;4994874;28;19918;-86
2023/04/13 02:21:12;;;;;;;;;;;;;;;15.85;nan;100076.00;4994442;28;20000;-87
2023/04/13 02:23:39;;;;;;;;;;;;;;;15.80;nan;100084.22;4994553;28;20406;-86
2023/04/13 02:26:17;;;;;;;;;;;;;;;15.76;nan;100082.38;4994543;28;19913;-87
2023/04/13 02:28:44;;;;;;;;;;;;;;;15.70;nan;100093.28;4994553;28;20287;-86
2023/04/13 02:31:15;;;;;;;;;;;;;;;15.67;nan;100098.50;4994605;28;19914;-86
2023/04/13 02:33:42;;;;;;;;;;;;;;;15.66;nan;100099.59;4994555;28;20334;-86
2023/04/13 02:36:08;;;;;;;;;;;;;;;15.62;nan;100101.28;4994181;28;19993;-87
2023/04/13 02:38:36;;;;;;;;;;;;;;;15.63;nan;100121.78;4993278;28;20463;-87
2023/04/13 02:41:01;;;;;;;;;;;;;;;15.64;nan;100118.78;4986715;28;19918;-86
2023/04/13 02:43:27;;;;;;;;;;;;;;;15.67;nan;100120.09;4983529;28;19972;-85
2023/04/13 02:45:53;;;;;;;;;;;;;;;15.70;nan;100119.50;4983407;28;20364;-86
2023/04/13 02:48:19;;;;;;;;;;;;;;;15.76;nan;100120.19;4980057;28;19957;-86
2023/04/13 02:50:45;;;;;;;;;;;;;;;15.82;nan;100113.63;4978779;28;19998;-86
2023/04/13 02:53:10;;;;;;;;;;;;;;;15.86;nan;100109.22;4986605;28;20020;-86
2023/04/13 02:55:36;;;;;;;;;;;;;;;15.88;nan;100110.53;4981514;28;19926;-86
2023/04/13 02:58:03;;;;;;;;;;;;;;;15.90;nan;100116.41;4983084;28;19918;-86
2023/04/13 03:00:29;;;;;;;;;;;;;;;15.92;nan;100125.03;4981059;28;19922;-84
2023/04/13 03:02:54;;;;;;;;;;;;;;;15.92;nan;100125.03;4982816;28;19961;-86
2023/04/13 03:05:19;;;;;;;;;;;;;;;15.91;nan;100128.03;4981339;28;19918;-86
2023/04/13 03:07:45;;;;;;;;;;;;;;;15.89;nan;100125.63;4982854;28;19929;-86
2023/04/13 03:10:10;;;;;;;;;;;;;;;15.89;nan;100117.53;4982639;28;20398;-86
2023/04/13 03:12:36;;;;;;;;;;;;;;;15.89;nan;100119.41;4982369;28;20099;-86
2023/04/13 03:15:03;;;;;;;;;;;;;;;15.86;nan;100122.72;4980773;28;20459;-86
2023/04/13 03:17:29;;;;;;;;;;;;;;;15.84;nan;100130.34;4984320;28;20205;-86
2023/04/13 03:19:55;;;;;;;;;;;;;;;15.78;nan;100123.41;4984465;28;20304;-86
2023/04/13 03:22:20;;;;;;;;;;;;;;;15.75;nan;100114.00;4988641;28;19921;-86
2023/04/13 03:24:46;;;;;;;;;;;;;;;15.76;nan;100114.78;4982817;28;19922;-86
2023/04/13 03:27:11;;;;;;;;;;;;;;;15.78;nan;100121.50;4988865;28;20038;-86
2023/04/13 03:29:36;;;;;;;;;;;;;;;15.78;nan;100126.09;4981641;28;19922;-86
2023/04/13 03:32:02;;;;;;;;;;;;;;;15.79;nan;100127.69;4979955;28;20017;-85
2023/04/13 03:34:27;;;;;;;;;;;;;;;15.78;nan;100129.59;4986155;28;20063;-86
2023/04/13 03:36:52;;;;;;;;;;;;;;;15.80;nan;100135.53;4979650;28;20247;-86
2023/04/13 03:39:18;;;;;;;;;;;;;;;15.80;nan;100146.34;4984942;28;19917;-86
2023/04/13 03:41:43;;;;;;;;;;;;;;;15.81;nan;100149.84;4986270;28;19918;-86
2023/04/13 03:44:08;;;;;;;;;;;;;;;15.83;nan;100153.84;4985004;28;19917;-86
2023/04/13 03:46:36;;;;;;;;;;;;;;;15.82;nan;100157.63;4978415;28;19984;-86
2023/04/13 03:49:03;;;;;;;;;;;;;;;15.85;nan;100157.03;4976434;28;19925;-86
2023/04/13 03:51:28;;;;;;;;;;;;;;;15.87;nan;100160.25;4979903;28;20288;-86
2023/04/13 03:53:54;;;;;;;;;;;;;;;15.86;nan;100166.75;4980137;28;19924;-86
2023/04/13 03:56:20;;;;;;;;;;;;;;;15.88;nan;100183.47;4981721;28;20388;-86
2023/04/13 03:58:45;;;;;;;;;;;;;;;15.89;nan;100185.06;4982358;28;20472;-86
2023/04/13 04:01:11;;;;;;;;;;;;;;;15.87;nan;100186.47;4981235;28;19922;-86
2023/04/13 04:03:38;;;;;;;;;;;;;;;15.87;nan;100187.25;4984565;28;19965;-86
2023/04/13 04:06:04;;;;;;;;;;;;;;;15.86;nan;100191.06;4981483;28;20456;-86
2023/04/13 04:08:30;;;;;;;;;;;;;;;15.88;nan;100205.06;4987211;28;20004;-86
2023/04/13 04:10:55;;;;;;;;;;;;;;;15.88;nan;100198.88;4980981;28;19918;-85
2023/04/13 04:13:20;;;;;;;;;;;;;;;15.87;nan;100192.66;4986802;28;19922;-86
2023/04/13 04:15:46;;;;;;;;;;;;;;;15.88;nan;100194.25;4982092;28;20007;-86
2023/04/13 04:18:11;;;;;;;;;;;;;;;15.88;nan;100209.66;4980216;28;19922;-86
2023/04/13 04:20:36;;;;;;;;;;;;;;;15.84;nan;100209.47;4987048;28;20010;-86
2023/04/13 04:23:05;;;;;;;;;;;;;;;15.82;nan;100200.06;4978991;28;19946;-86
2023/04/13 04:25:32;;;;;;;;;;;;;;;15.85;nan;100204.88;4982201;28;19917;-86
2023/04/13 04:28:01;;;;;;;;;;;;;;;15.91;nan;100204.47;4979190;28;19926;-86
2023/04/13 04:30:28;;;;;;;;;;;;;;;15.94;nan;100213.88;4980166;28;20632;-86
2023/04/13 04:32:53;;;;;;;;;;;;;;;15.95;nan;100213.59;4978269;28;19918;-85
2023/04/13 04:35:31;;;;;;;;;;;;;;;15.97;nan;100214.09;4988945;28;20287;-85
2023/04/13 04:37:57;;;;;;;;;;;;;;;15.95;nan;100227.09;4986535;28;19927;-85
2023/04/13 04:40:22;;;;;;;;;;;;;;;15.96;nan;100230.59;4990081;28;20178;-86
2023/04/13 04:42:48;;;;;;;;;;;;;;;15.92;nan;100227.69;4985437;28;19918;-85
2023/04/13 04:45:16;;;;;;;;;;;;;;;15.91;nan;100230.69;4989239;28;19922;-86
2023/04/13 04:47:42;;;;;;;;;;;;;;;15.90;nan;100221.78;4988261;28;20474;-85
2023/04/13 04:50:11;;;;;;;;;;;;;;;15.88;nan;100237.50;4998123;28;19920;-85
2023/04/13 04:52:37;;;;;;;;;;;;;;;15.90;nan;100246.09;4989316;28;19922;-85
2023/04/13 04:55:05;;;;;;;;;;;;;;;15.89;nan;100244.50;4984179;28;20427;-85
2023/04/13 04:57:31;;;;;;;;;;;;;;;15.86;nan;100250.50;4985120;28;19926;-85
2023/04/13 04:59:56;;;;;;;;;;;;;;;15.88;nan;100251.00;4987858;28;20132;-85
2023/04/13 05:02:21;;;;;;;;;;;;;;;15.85;nan;100253.50;4989775;28;19963;-85
2023/04/13 05:04:47;;;;;;;;;;;;;;;15.84;nan;100260.00;4988540;28;20017;-85
2023/04/13 05:07:16;;;;;;;;;;;;;;;15.79;nan;100255.44;4984881;28;19929;-85
2023/04/13 05:09:42;;;;;;;;;;;;;;;15.76;nan;100258.75;4989283;28;19960;-85
2023/04/13 05:12:08;;;;;;;;;;;;;;;15.71;nan;100265.03;4984418;28;19913;-85
2023/04/13 05:14:33;;;;;;;;;;;;;;;15.69;nan;100264.53;4986717;28;19983;-85
2023/04/13 05:17:02;;;;;;;;;;;;;;;15.71;nan;100269.63;4982804;28;20016;-85
2023/04/13 05:19:28;;;;;;;;;;;;;;;15.64;nan;100271.91;4984796;28;19917;-85
2023/04/13 05:21:53;;;;;;;;;;;;;;;15.64;nan;100282.72;4984404;28;20380;-85
2023/04/13 05:24:19;;;;;;;;;;;;;;;15.66;nan;100283.22;4987768;28;19925;-85
2023/04/13 05:26:44;;;;;;;;;;;;;;;15.67;nan;100276.72;4981207;28;19918;-84
2023/04/13 05:29:09;;;;;;;;;;;;;;;15.69;nan;100267.22;4994896;28;19957;-86
2023/04/13 05:31:35;;;;;;;;;;;;;;;15.71;nan;100264.22;4990278;28;20401;-86
2023/04/13 05:34:01;;;;;;;;;;;;;;;15.73;nan;100255.84;4985326;28;19918;-86
2023/04/13 05:36:27;;;;;;;;;;;;;;;15.75;nan;100264.44;4988108;28;19926;-86
2023/04/13 05:38:55;;;;;;;;;;;;;;;15.75;nan;100265.25;4989083;28;19918;-86
2023/04/13 05:41:21;;;;;;;;;;;;;;;15.68;nan;100272.94;4988453;28;19957;-85
2023/04/13 05:43:48;;;;;;;;;;;;;;;15.61;nan;100275.19;4990281;28;19960;-85
2023/04/13 05:46:14;;;;;;;;;;;;;;;15.62;nan;100271.41;4990892;28;19957;-85
2023/04/13 05:48:42;;;;;;;;;;;;;;;15.58;nan;100271.13;4989053;28;19925;-86
2023/04/13 05:51:08;;;;;;;;;;;;;;;15.54;nan;100289.03;4984705;28;21055;-85
2023/04/13 05:53:33;;;;;;;;;;;;;;;15.45;nan;100276.50;4984898;28;19998;-85
2023/04/13 05:55:59;;;;;;;;;;;;;;;15.41;nan;100278.94;4986979;28;19922;-85
2023/04/13 05:58:25;;;;;;;;;;;;;;;15.39;nan;100281.94;4991391;28;20851;-85
2023/04/13 06:00:51;;;;;;;;;;;;;;;15.42;nan;100284.03;4992059;28;19924;-85
2023/04/13 06:03:19;;;;;;;;;;;;;;;15.42;nan;100294.84;4985046;28;20362;-84
2023/04/13 06:05:44;;;;;;;;;;;;;;;15.46;nan;100302.38;4984757;28;19926;-85
2023/04/13 06:08:10;;;;;;;;;;;;;;;15.50;nan;100311.50;4988301;28;19917;-85
2023/04/13 06:10:36;;;;;;;;;;;;;;;15.48;nan;100314.50;4986022;28;19917;-85
2023/04/13 06:13:01;;;;;;;;;;;;;;;15.50;nan;100325.00;4975931;28;19918;-86
2023/04/13 06:15:26;;;;;;;;;;;;;;;15.43;nan;100319.94;4985390;28;19930;-86
2023/04/13 06:17:52;;;;;;;;;;;;;;;15.43;nan;100328.03;4977541;28;19918;-86
2023/04/13 06:20:18;;;;;;;;;;;;;;;15.40;nan;100325.94;4992570;28;19987;-85
2023/04/13 06:22:44;;;;;;;;;;;;;;;15.35;nan;100348.41;4981892;28;19918;-86
2023/04/13 06:25:10;;;;;;;;;;;;;;;15.39;nan;100335.13;4984587;28;19918;-86
2023/04/13 06:27:36;;;;;;;;;;;;;;;15.39;nan;100343.22;4979870;28;19967;-86
2023/04/13 06:30:02;;;;;;;;;;;;;;;15.38;nan;100342.41;4988975;28;19922;-86
2023/04/13 06:32:27;;;;;;;;;;;;;;;15.35;nan;100348.41;4988561;28;19917;-85
2023/04/13 06:34:52;;;;;;;;;;;;;;;15.37;nan;100350.81;4990922;28;19937;-86
2023/04/13 06:37:18;;;;;;;;;;;;;;;15.40;nan;100361.81;4992656;28;20446;-85
2023/04/13 06:39:43;;;;;;;;;;;;;;;15.46;nan;100377.97;4988175;28;19937;-86
2023/04/13 06:42:08;;;;;;;;;;;;;;;15.40;nan;100383.41;4988154;28;20291;-85
2023/04/13 06:44:34;;;;;;;;;;;;;;;15.32;nan;100384.06;4990603;28;19925;-86
2023/04/13 06:46:59;;;;;;;;;;;;;;;15.33;nan;100393.78;4992750;28;19924;-85
2023/04/13 06:49:25;;;;;;;;;;;;;;;15.33;nan;100395.66;4989426;28;20007;-86
2023/04/13 06:51:50;;;;;;;;;;;;;;;15.29;nan;100397.34;4986906;28;19922;-85
2023/04/13 06:54:16;;;;;;;;;;;;;;;15.26;nan;100389.78;4989670;28;19936;-85
2023/04/13 06:56:41;;;;;;;;;;;;;;;15.28;nan;100396.53;4988892;28;19970;-85
2023/04/13 06:59:06;;;;;;;;;;;;;;;15.29;nan;100397.34;4995708;28;19932;-85
2023/04/13 07:01:32;;;;;;;;;;;;;;;15.28;nan;100407.34;4994129;28;19917;-85
2023/04/13 07:03:57;;;;;;;;;;;;;;;15.33;nan;100404.56;4986378;28;20328;-85
2023/04/13 07:06:23;;;;;;;;;;;;;;;15.36;nan;100406.69;4991434;28;19980;-84
2023/04/13 07:08:48;;;;;;;;;;;;;;;15.39;nan;100408.81;4987669;28;19949;-84
2023/04/13 07:11:13;;;;;;;;;;;;;;;15.38;nan;100409.91;4992217;28;20363;-85
2023/04/13 07:13:39;;;;;;;;;;;;;;;15.37;nan;100411.00;4997447;28;19995;-85
2023/04/13 07:16:07;;;;;;;;;;;;;;;15.39;nan;100416.91;4988961;28;19925;-85
2023/04/13 07:18:32;;;;;;;;;;;;;;;15.41;nan;100422.03;4991190;28;19917;-85
2023/04/13 07:20:58;;;;;;;;;;;;;;;15.45;nan;100424.97;4987344;28;19971;-85
2023/04/13 07:23:23;;;;;;;;;;;;;;;15.49;nan;100423.28;4997372;28;19925;-85
2023/04/13 07:25:48;;;;;;;;;;;;;;;15.58;nan;100437.75;4996734;28;19922;-85
2023/04/13 07:28:14;;;;;;;;;;;;;;;15.63;nan;100430.44;4987663;28;19917;-85
2023/04/13 07:30:42;;;;;;;;;;;;;;;15.67;nan;100438.75;4996582;28;19922;-84
2023/04/13 07:33:08;;;;;;;;;;;;;;;15.73;nan;100434.91;4990725;28;19972;-85
2023/04/13 07:35:35;;;;;;;;;;;;;;;15.81;nan;100434.28;4991294;28;19928;-85
2023/04/13 07:38:01;;;;;;;;;;;;;;;15.84;nan;100444.50;4991188;28;19945;-85
2023/04/13 07:40:26;;;;;;;;;;;;;;;15.85;nan;100448.00;4988013;28;19921;-85
2023/04/13 07:42:51;;;;;;;;;;;;;;;15.83;nan;100459.09;4989448;28;19961;-84
2023/04/13 07:45:18;;;;;;;;;;;;;;;15.86;nan;100460.41;4991935;28;19952;-85
2023/04/13 07:47:44;;;;;;;;;;;;;;;15.87;nan;100470.13;4990051;28;19918;-85
2023/04/13 07:50:09;;;;;;;;;;;;;;;15.86;nan;100468.50;4984121;28;20587;-85
2023/04/13 07:52:35;;;;;;;;;;;;;;;15.91;nan;100466.53;4992090;28;19972;-85
2023/04/13 07:55:01;;;;;;;;;;;;;;;15.94;nan;100463.25;4989458;28;19922;-84
2023/04/13 07:57:27;;;;;;;;;;;;;;;15.99;nan;100465.09;4987497;28;20379;-85
2023/04/13 07:59:52;;;;;;;;;;;;;;;16.02;nan;100469.91;4986476;28;19937;-84
2023/04/13 08:02:20;;;;;;;;;;;;;;;16.02;nan;100469.91;4984826;28;20584;-85
2023/04/13 08:04:45;;;;;;;;;;;;;;;16.04;nan;100480.44;4990254;28;19940;-85
2023/04/13 08:07:11;;;;;;;;;;;;;;;16.07;nan;100477.16;4983564;28;20287;-84
2023/04/13 08:09:40;;;;;;;;;;;;;;;16.09;nan;100474.97;4987400;28;19961;-85
2023/04/13 08:12:05;;;;;;;;;;;;;;;16.13;nan;100465.16;4990168;28;20004;-84
2023/04/13 08:14:31;;;;;;;;;;;;;;;16.14;nan;100469.47;4988377;28;20013;-84
2023/04/13 08:16:57;;;;;;;;;;;;;;;16.15;nan;100463.78;4984705;28;19929;-85
2023/04/13 08:19:22;;;;;;;;;;;;;;;16.17;nan;100466.22;4984230;28;20390;-85
2023/04/13 08:21:47;;;;;;;;;;;;;;;16.19;nan;100467.53;4991213;28;20299;-85
2023/04/13 08:24:13;;;;;;;;;;;;;;;16.24;nan;100472.03;4984747;28;20392;-85
2023/04/13 08:26:38;;;;;;;;;;;;;;;16.33;nan;100475.69;4994356;28;20060;-84
2023/04/13 08:29:04;;;;;;;;;;;;;;;16.40;nan;100475.34;4994457;28;19952;-85
2023/04/13 08:31:31;;;;;;;;;;;;;;;16.43;nan;100470.13;4988720;28;20065;-85
2023/04/13 08:33:56;;;;;;;;;;;;;;;16.50;nan;100470.56;4989536;28;19925;-85
2023/04/13 08:36:22;;;;;;;;;;;;;;;16.51;nan;100471.34;4987006;28;19925;-84
2023/04/13 08:38:47;;;;;;;;;;;;;;;16.51;nan;100468.66;4986338;28;20011;-85
2023/04/13 08:41:13;;;;;;;;;;;;;;;16.45;nan;100478.75;4993078;28;19925;-85
2023/04/13 08:43:39;;;;;;;;;;;;;;;16.40;nan;100476.13;4994653;28;19972;-85
2023/04/13 08:46:05;;;;;;;;;;;;;;;16.36;nan;100467.00;4991498;28;20340;-86
2023/04/13 08:48:34;;;;;;;;;;;;;;;16.37;nan;100475.94;4996346;28;20004;-85
2023/04/13 08:51:00;;;;;;;;;;;;;;;16.38;nan;100478.34;4988077;28;19918;-85
2023/04/13 08:53:25;;;;;;;;;;;;;;;16.43;nan;100477.44;5000358;28;20354;-85
2023/04/13 08:55:51;;;;;;;;;;;;;;;16.45;nan;100484.16;4991346;28;19987;-85
2023/04/13 08:58:19;;;;;;;;;;;;;;;16.46;nan;100487.66;4991823;28;19964;-86
2023/04/13 09:00:46;;;;;;;;;;;;;;;16.38;nan;100494.56;4991744;28;19926;-85
2023/04/13 09:03:13;;;;;;;;;;;;;;;16.35;nan;100502.44;4991518;28;19924;-85
2023/04/13 09:05:40;;;;;;;;;;;;;;;16.41;nan;100499.38;4994831;28;20016;-85
2023/04/13 09:08:06;;;;;;;;;;;;;;;16.42;nan;100511.00;4991188;28;19964;-85
2023/04/13 09:10:32;;;;;;;;;;;;;;;16.43;nan;100516.09;4993089;28;19925;-86
2023/04/13 09:12:58;;;;;;;;;;;;;;;16.51;nan;100518.13;4991453;28;20016;-84
2023/04/13 09:15:23;;;;;;;;;;;;;;;16.61;nan;100526.13;4991457;28;20039;-85
2023/04/13 09:17:49;;;;;;;;;;;;;;;16.71;nan;100530.59;4990791;28;19918;-84
2023/04/13 09:20:16;;;;;;;;;;;;;;;16.81;nan;100529.63;4986332;28;19914;-83
2023/04/13 09:22:41;;;;;;;;;;;;;;;16.81;nan;100522.31;4993765;28;19914;-85
2023/04/13 09:25:18;;;;;;;;;;;;;;;16.87;nan;100525.75;5002723;28;20008;-85
2023/04/13 09:27:43;;;;;;;;;;;;;;;16.84;nan;100524.44;4989635;28;19917;-84
2023/04/13 09:30:10;;;;;;;;;;;;;;;16.89;nan;100534.41;4984802;28;20295;-84
2023/04/13 09:32:35;;;;;;;;;;;;;;;16.95;nan;100535.09;4997068;28;19925;-85
2023/04/13 09:35:03;;;;;;;;;;;;;;;16.85;nan;100538.75;4991130;28;19921;-85
2023/04/13 09:37:31;;;;;;;;;;;;;;;16.86;nan;100545.78;4993956;28;19929;-85
2023/04/13 09:40:07;;;;;;;;;;;;;;;16.87;nan;100536.56;4998864;28;19918;-84
2023/04/13 09:42:32;;;;;;;;;;;;;;;16.85;nan;100530.66;4991958;28;19917;-85
2023/04/13 09:44:58;;;;;;;;;;;;;;;16.89;nan;100537.91;4991286;28;19956;-85
2023/04/13 09:47:24;;;;;;;;;;;;;;;16.91;nan;100545.72;4991872;28;19925;-86
2023/04/13 09:49:50;;;;;;;;;;;;;;;16.93;nan;100538.09;4989089;28;20391;-84
2023/04/13 09:52:22;;;;;;;;;;;;;;;16.95;nan;100543.22;4991808;28;19921;-85
2023/04/13 09:55:00;;;;;;;;;;;;;;;16.93;nan;100551.63;4990627;28;19945;-84
2023/04/13 09:57:26;;;;;;;;;;;;;;;16.93;nan;100546.22;4989919;28;20020;-84
2023/04/13 09:59:52;;;;;;;;;;;;;;;17.01;nan;100547.44;4989835;28;19926;-84
2023/04/13 10:02:18;;;;;;;;;;;;;;;17.09;nan;100539.47;4990884;28;19918;-84
2023/04/13 10:04:44;;;;;;;;;;;;;;;17.19;nan;100531.16;4990702;28;20359;-84
2023/04/13 10:07:10;;;;;;;;;;;;;;;17.24;nan;100530.28;4989129;28;19921;-85
2023/04/13 10:09:35;;;;;;;;;;;;;;;17.30;nan;100539.13;4981545;28;19925;-84
2023/04/13 10:12:02;;;;;;;;;;;;;;;17.35;nan;100537.13;4989150;28;19968;-84
2023/04/13 10:14:31;;;;;;;;;;;;;;;17.38;nan;100538.41;4991323;28;19926;-85
2023/04/13 10:17:27;;;;;;;;;;;;;;;17.47;nan;100542.88;4990913;28;20509;-85
2023/04/13 10:19:53;;;;;;;;;;;;;;;17.56;nan;100548.38;4991911;28;19963;-85
2023/04/13 10:22:21;;;;;;;;;;;;;;;17.63;nan;100551.50;5013068;28;19914;-83
2023/04/13 10:24:47;;;;;;;;;;;;;;;17.74;nan;100561.06;4976492;28;20138;-85
2023/04/13 10:27:12;;;;;;;;;;;;;;;17.72;nan;100566.00;4989710;28;20363;-83
2023/04/13 10:29:38;;;;;;;;;;;;;;;17.66;nan;100556.31;4986454;28;19932;-84
2023/04/13 10:32:04;;;;;;;;;;;;;;;17.60;nan;100552.13;4987693;28;19914;-83
2023/04/13 10:34:30;;;;;;;;;;;;;;;17.63;nan;100561.56;4992649;28;19968;-84
2023/04/13 10:36:58;;;;;;;;;;;;;;;17.62;nan;100549.91;4989357;28;19922;-84
2023/04/13 10:39:24;;;;;;;;;;;;;;;17.68;nan;100553.34;4993345;28;19925;-84
2023/04/13 10:41:59;;;;;;;;;;;;;;;17.69;nan;100554.94;4994986;28;19921;-83
2023/04/13 10:44:25;;;;;;;;;;;;;;;17.64;nan;100549.59;4994644;28;20044;-84
2023/04/13 10:46:50;;;;;;;;;;;;;;;17.71;nan;100552.75;4991472;28;20024;-84
2023/04/13 10:49:16;;;;;;;;;;;;;;;17.75;nan;100548.31;4990666;28;19971;-84
2023/04/13 10:51:43;;;;;;;;;;;;;;;17.80;nan;100564.50;4989129;28;19960;-85
2023/04/13 10:54:08;;;;;;;;;;;;;;;17.87;nan;100554.06;4992552;28;19917;-83
2023/04/13 10:56:34;;;;;;;;;;;;;;;17.97;nan;100563.91;4988015;28;20554;-84
2023/04/13 10:58:59;;;;;;;;;;;;;;;18.00;nan;100569.53;4999732;28;19918;-84
2023/04/13 11:01:26;;;;;;;;;;;;;;;18.04;nan;100578.66;4990532;28;19972;-84
2023/04/13 11:03:51;;;;;;;;;;;;;;;18.12;nan;100567.09;4992500;28;19922;-83
2023/04/13 11:06:17;;;;;;;;;;;;;;;18.23;nan;100564.97;4991936;28;19928;-84
2023/04/13 11:08:43;;;;;;;;;;;;;;;18.28;nan;100555.94;4993466;28;19918;-84
2023/04/13 11:11:09;;;;;;;;;;;;;;;18.25;nan;100557.34;4989372;28;20387;-84
2023/04/13 11:13:42;;;;;;;;;;;;;;;18.31;nan;100564.28;4991460;28;19941;-83
2023/04/13 11:16:07;;;;;;;;;;;;;;;18.37;nan;100565.75;4994374;28;20358;-84
2023/04/13 11:18:33;;;;;;;;;;;;;;;18.42;nan;100556.72;4987287;28;19917;-84
2023/04/13 11:20:58;;;;;;;;;;;;;;;18.43;nan;100569.16;4991355;28;19918;-84
2023/04/13 11:23:24;;;;;;;;;;;;;;;18.38;nan;100567.38;4993832;28;19928;-84
2023/04/13 11:25:51;;;;;;;;;;;;;;;18.47;nan;100574.78;4988158;28;20462;-84
2023/04/13 11:28:16;;;;;;;;;;;;;;;18.60;nan;100577.47;4984480;28;20307;-83
2023/04/13 11:30:42;;;;;;;;;;;;;;;18.56;nan;100578.38;4987813;28;19918;-84
2023/04/13 11:33:08;;;;;;;;;;;;;;;18.61;nan;100591.84;4988874;28;19969;-84
2023/04/13 11:35:42;;;;;;;;;;;;;;;18.59;nan;100589.44;4984260;28;19965;-84
2023/04/13 11:38:16;;;;;;;;;;;;;;;18.62;nan;100585.28;4993604;28;19920;-84
2023/04/13 11:40:44;;;;;;;;;;;;;;;18.57;nan;100580.00;4992091;28;19937;-84
2023/04/13 11:43:10;;;;;;;;;;;;;;;18.60;nan;100598.38;4993037;28;19918;-84
2023/04/13 11:45:37;;;;;;;;;;;;;;;18.51;nan;100587.44;4984424;28;19971;-84
2023/04/13 11:48:05;;;;;;;;;;;;;;;18.46;nan;100595.69;4990343;28;19918;-84
2023/04/13 11:50:31;;;;;;;;;;;;;;;18.46;nan;100598.38;4999950;28;19914;-81
2023/04/13 11:52:56;;;;;;;;;;;;;;;18.51;nan;100592.06;4986375;28;19922;-82
2023/04/13 11:55:22;;;;;;;;;;;;;;;18.51;nan;100590.16;4989019;28;20264;-83
2023/04/13 11:57:48;;;;;;;;;;;;;;;18.53;nan;100589.84;4984295;28;19956;-83
2023/04/13 12:00:21;;;;;;;;;;;;;;;18.59;nan;100599.47;4993208;28;20088;-82
2023/04/13 12:02:46;;;;;;;;;;;;;;;18.66;nan;100597.16;4986096;28;19940;-83
2023/04/13 12:05:25;;;;;;;;;;;;;;;18.75;nan;100600.78;4988576;28;19917;-83
2023/04/13 12:07:52;;;;;;;;;;;;;;;18.82;nan;100608.50;4990910;28;20008;-82
2023/04/13 12:10:28;;;;;;;;;;;;;;;18.90;nan;100605.88;4988666;28;20430;-83
2023/04/13 12:13:00;;;;;;;;;;;;;;;19.00;nan;100611.03;4981779;28;19914;-82
2023/04/13 12:15:30;;;;;;;;;;;;;;;19.08;nan;100616.88;4997642;28;19929;-82
2023/04/13 12:17:56;;;;;;;;;;;;;;;19.15;nan;100618.03;4983631;28;19926;-83
2023/04/13 12:20:23;;;;;;;;;;;;;;;19.17;nan;100620.44;4987065;28;19918;-82
2023/04/13 12:22:48;;;;;;;;;;;;;;;19.19;nan;100618.19;4988571;28;19917;-82
2023/04/13 12:25:15;;;;;;;;;;;;;;;19.16;nan;100621.53;4998355;28;19982;-82
2023/04/13 12:27:40;;;;;;;;;;;;;;;19.16;nan;100626.97;4995196;28;19996;-83
2023/04/13 12:30:15;;;;;;;;;;;;;;;19.16;nan;100629.69;4989278;28;20358;-83
2023/04/13 12:32:44;;;;;;;;;;;;;;;19.10;nan;100620.88;4989574;28;19925;-82
2023/04/13 12:35:10;;;;;;;;;;;;;;;19.05;nan;100631.84;4993120;28;19922;-83
2023/04/13 12:37:40;;;;;;;;;;;;;;;19.08;nan;100627.72;4989891;28;20410;-83
2023/04/13 12:40:08;;;;;;;;;;;;;;;19.20;nan;100622.53;4989399;28;20505;-83
2023/04/13 12:42:34;;;;;;;;;;;;;;;19.28;nan;100622.59;4990982;28;19921;-82
2023/04/13 12:44:59;;;;;;;;;;;;;;;19.36;nan;100628.38;4991707;28;20035;-83
2023/04/13 12:47:25;;;;;;;;;;;;;;;19.34;nan;100628.69;4992553;28;20929;-83
2023/04/13 12:49:50;;;;;;;;;;;;;;;19.31;nan;100627.41;4995556;28;19937;-82
2023/04/13 12:52:15;;;;;;;;;;;;;;;19.28;nan;100624.50;4984280;28;20431;-83
2023/04/13 12:54:41;;;;;;;;;;;;;;;19.33;nan;100638.75;4983171;28;20554;-82